Time;durP1;ratioP1;P1;durP2;ratioP2;P2;SDS_P1;SDS_P2;PMS_P1;PMS_P2;Temp;Humidity;BMP_temperature;BMP_pressure;BME280_temperature;BME280_humidity;BME280_pressure;Samples;Min_cycle;Max_cycle;Signal;HPM_P1;HPM_P2
2023/06/11 00:01:57;;;;;;;10.90;7.20;;;;;;;;;;5052339;28;20029;-66
2023/06/11 00:04:26;;;;;;;9.68;7.13;;;;;;;;;;5050339;28;20033;-65
2023/06/11 00:06:53;;;;;;;9.75;7.40;;;;;;;;;;5053345;28;20107;-65
2023/06/11 00:09:19;;;;;;;11.35;7.20;;;;;;;;;;5054652;28;20028;-65
2023/06/11 00:11:44;;;;;;;11.38;7.30;;;;;;;;;;5056935;28;20044;-65
2023/06/11 00:14:10;;;;;;;9.65;7.13;;;;;;;;;;5053596;28;20027;-67
2023/06/11 00:16:36;;;;;;;10.27;7.05;;;;;;;;;;5048860;28;20402;-66
2023/06/11 00:19:02;;;;;;;9.52;6.93;;;;;;;;;;5051857;28;20115;-65
2023/06/11 00:21:28;;;;;;;10.63;7.00;;;;;;;;;;5053230;28;20100;-65
2023/06/11 00:23:54;;;;;;;10.48;7.70;;;;;;;;;;5053537;28;20478;-66
2023/06/11 00:26:19;;;;;;;12.50;7.47;;;;;;;;;;5053810;28;20040;-66
2023/06/11 00:28:45;;;;;;;10.50;7.60;;;;;;;;;;5052372;28;20478;-66
2023/06/11 00:31:10;;;;;;;11.52;7.18;;;;;;;;;;5051762;28;20128;-66
2023/06/11 00:33:35;;;;;;;10.52;7.30;;;;;;;;;;5053419;28;20052;-66
2023/06/11 00:36:01;;;;;;;8.85;7.25;;;;;;;;;;5052984;28;20467;-65
2023/06/11 00:38:26;;;;;;;11.98;7.68;;;;;;;;;;5053522;28;20035;-66
2023/06/11 00:40:51;;;;;;;10.30;7.55;;;;;;;;;;5049808;28;20030;-66
2023/06/11 00:43:23;;;;;;;9.50;7.53;;;;;;;;;;5056655;28;20478;-66
2023/06/11 00:45:50;;;;;;;9.32;7.10;;;;;;;;;;5053450;28;20029;-65
2023/06/11 00:48:16;;;;;;;9.48;7.53;;;;;;;;;;5051550;28;20036;-65
2023/06/11 00:50:48;;;;;;;11.38;7.43;;;;;;;;;;5052655;28;20471;-66
2023/06/11 00:53:14;;;;;;;12.18;7.63;;;;;;;;;;5052237;28;20024;-66
2023/06/11 00:55:39;;;;;;;10.45;7.47;;;;;;;;;;5049771;28;20484;-66
2023/06/11 00:58:13;;;;;;;10.65;7.68;;;;;;;;;;5051928;28;20029;-65
2023/06/11 01:03:41;;;;;;;10.70;7.68;;;;;;;;;;5075795;22;20116;-71
2023/06/11 01:06:11;;;;;;;11.70;7.38;;;;;;;;;;5111354;27;20031;-71
2023/06/11 01:08:40;;;;;;;10.38;7.60;;;;;;;;;;5110561;28;20092;-71
2023/06/11 01:11:13;;;;;;;9.65;7.28;;;;;;;;;;5111696;28;20023;-71
2023/06/11 01:13:38;;;;;;;14.90;7.72;;;;;;;;;;5110392;27;20422;-71
2023/06/11 01:16:10;;;;;;;11.43;7.57;;;;;;;;;;5114114;28;20028;-71
2023/06/11 01:18:40;;;;;;;11.05;7.45;;;;;;;;;;5114550;27;20089;-71
2023/06/11 01:21:09;;;;;;;10.55;6.97;;;;;;;;;;5116777;27;20031;-71
2023/06/11 01:24:00;;;;;;;11.27;6.90;;;;;;;;;;5111335;28;20051;-71
2023/06/11 01:26:39;;;;;;;11.75;7.20;;;;;;;;;;5109921;28;20039;-71
2023/06/11 01:29:07;;;;;;;9.85;7.47;;;;;;;;;;5115828;28;20027;-71
2023/06/11 01:31:37;;;;;;;11.02;7.03;;;;;;;;;;5114458;28;20031;-71
2023/06/11 01:34:03;;;;;;;9.00;6.90;;;;;;;;;;5116974;28;20109;-71
2023/06/11 01:36:29;;;;;;;11.65;7.40;;;;;;;;;;5112559;28;20030;-71
2023/06/11 01:38:58;;;;;;;10.38;7.13;;;;;;;;;;5113592;28;20024;-71
2023/06/11 01:41:23;;;;;;;10.55;7.32;;;;;;;;;;5113067;28;20031;-71
2023/06/11 01:43:49;;;;;;;9.98;6.95;;;;;;;;;;5113314;28;20024;-71
2023/06/11 01:46:14;;;;;;;10.13;7.50;;;;;;;;;;5112589;28;20019;-71
2023/06/11 01:48:40;;;;;;;8.68;6.70;;;;;;;;;;5112174;28;20020;-71
2023/06/11 01:51:06;;;;;;;10.70;6.53;;;;;;;;;;5112802;28;20488;-71
2023/06/11 01:53:32;;;;;;;10.77;6.85;;;;;;;;;;5113264;28;20106;-71
2023/06/11 01:55:58;;;;;;;11.65;6.57;;;;;;;;;;5114533;28;20039;-71
2023/06/11 01:58:23;;;;;;;11.82;6.40;;;;;;;;;;5113224;28;20098;-70
2023/06/11 02:00:49;;;;;;;11.52;6.53;;;;;;;;;;5117492;27;20079;-71
2023/06/11 02:03:15;;;;;;;9.48;6.30;;;;;;;;;;5114616;28;20030;-71
2023/06/11 02:05:41;;;;;;;9.82;6.05;;;;;;;;;;5116492;28;20137;-71
2023/06/11 02:08:06;;;;;;;8.20;6.05;;;;;;;;;;5117095;28;20019;-71
2023/06/11 02:10:32;;;;;;;11.45;6.15;;;;;;;;;;5117309;28;20034;-71
2023/06/11 02:12:57;;;;;;;11.90;6.63;;;;;;;;;;5116855;28;20030;-71
2023/06/11 02:15:22;;;;;;;9.82;6.25;;;;;;;;;;5114154;27;20019;-71
2023/06/11 02:17:47;;;;;;;12.60;6.38;;;;;;;;;;5115329;28;20031;-71
2023/06/11 02:20:15;;;;;;;9.13;5.85;;;;;;;;;;5114614;28;20043;-71
2023/06/11 02:22:40;;;;;;;7.47;5.68;;;;;;;;;;5116877;28;20370;-70
2023/06/11 02:25:06;;;;;;;10.15;6.30;;;;;;;;;;5115633;27;20086;-70
2023/06/11 02:27:31;;;;;;;19.70;6.60;;;;;;;;;;5116047;28;20031;-71
2023/06/11 02:29:57;;;;;;;11.07;6.32;;;;;;;;;;5115904;28;20462;-71
2023/06/11 02:32:22;;;;;;;8.38;6.35;;;;;;;;;;5113048;28;20023;-71
2023/06/11 02:34:48;;;;;;;8.73;5.90;;;;;;;;;;5114529;27;20015;-71
2023/06/11 02:37:13;;;;;;;8.95;6.05;;;;;;;;;;5116099;28;20019;-70
2023/06/11 02:39:38;;;;;;;11.13;6.07;;;;;;;;;;5116749;27;20473;-71
2023/06/11 02:42:05;;;;;;;9.75;6.03;;;;;;;;;;5116309;28;20031;-71
2023/06/11 02:44:30;;;;;;;13.15;6.40;;;;;;;;;;5113529;27;20012;-71
2023/06/11 02:46:56;;;;;;;11.05;6.18;;;;;;;;;;5114767;27;20069;-70
2023/06/11 02:49:21;;;;;;;10.80;6.28;;;;;;;;;;5114925;27;20393;-70
2023/06/11 02:51:46;;;;;;;10.35;6.45;;;;;;;;;;5097330;28;20016;-70
2023/06/11 02:54:12;;;;;;;10.20;6.20;;;;;;;;;;5099599;27;20453;-70
2023/06/11 02:56:37;;;;;;;10.10;5.88;;;;;;;;;;5114617;28;20055;-66
2023/06/11 02:59:02;;;;;;;13.48;6.32;;;;;;;;;;5116378;28;20453;-66
2023/06/11 03:01:28;;;;;;;10.13;5.95;;;;;;;;;;5114274;28;20019;-66
2023/06/11 03:03:53;;;;;;;10.70;5.93;;;;;;;;;;5114523;28;20046;-66
2023/06/11 03:06:18;;;;;;;13.85;5.97;;;;;;;;;;5115716;27;20023;-66
2023/06/11 03:08:43;;;;;;;11.95;6.22;;;;;;;;;;5116246;28;20046;-66
2023/06/11 03:11:09;;;;;;;9.93;5.88;;;;;;;;;;5111960;28;20446;-66
2023/06/11 03:13:34;;;;;;;9.98;5.53;;;;;;;;;;5116101;28;20024;-66
2023/06/11 03:15:59;;;;;;;11.43;5.82;;;;;;;;;;5113142;27;20050;-66
2023/06/11 03:18:25;;;;;;;8.07;5.63;;;;;;;;;;5114048;28;20018;-66
2023/06/11 03:20:50;;;;;;;8.38;5.63;;;;;;;;;;5113996;27;20015;-66
2023/06/11 03:23:15;;;;;;;8.80;5.25;;;;;;;;;;5115728;28;20084;-66
2023/06/11 03:25:41;;;;;;;11.35;5.70;;;;;;;;;;5112489;27;20015;-66
2023/06/11 03:28:07;;;;;;;9.60;5.40;;;;;;;;;;5115251;28;20024;-66
2023/06/11 03:30:32;;;;;;;8.60;5.22;;;;;;;;;;5113558;28;20015;-66
2023/06/11 03:32:57;;;;;;;8.80;5.72;;;;;;;;;;5115556;28;20051;-66
2023/06/11 03:35:22;;;;;;;9.82;5.50;;;;;;;;;;5110813;27;20086;-67
2023/06/11 03:37:48;;;;;;;9.55;5.47;;;;;;;;;;5110455;27;20024;-66
2023/06/11 03:40:13;;;;;;;10.45;4.88;;;;;;;;;;5115221;28;20358;-66
2023/06/11 03:42:39;;;;;;;11.52;6.32;;;;;;;;;;5115121;28;20415;-66
2023/06/11 03:45:04;;;;;;;10.18;5.00;;;;;;;;;;5114116;28;20026;-66
2023/06/11 03:47:30;;;;;;;8.68;5.32;;;;;;;;;;5114229;28;20022;-66
2023/06/11 03:49:55;;;;;;;10.10;4.97;;;;;;;;;;5113532;27;20027;-66
2023/06/11 03:52:20;;;;;;;9.90;5.68;;;;;;;;;;5114994;28;20027;-66
2023/06/11 03:54:46;;;;;;;9.07;5.03;;;;;;;;;;5114733;28;20041;-66
2023/06/11 03:57:12;;;;;;;9.20;4.82;;;;;;;;;;5113930;27;20479;-66
2023/06/11 03:59:37;;;;;;;9.52;5.30;;;;;;;;;;5115101;28;20019;-65
2023/06/11 04:02:03;;;;;;;11.90;5.47;;;;;;;;;;5112621;28;20031;-65
2023/06/11 04:04:28;;;;;;;8.73;5.03;;;;;;;;;;5112972;28;20116;-65
2023/06/11 04:06:53;;;;;;;9.43;4.55;;;;;;;;;;5094449;28;20044;-65
2023/06/11 04:09:18;;;;;;;10.05;5.07;;;;;;;;;;5114341;28;20388;-66
2023/06/11 04:11:44;;;;;;;9.95;4.60;;;;;;;;;;5114661;28;20031;-65
2023/06/11 04:14:09;;;;;;;8.43;4.95;;;;;;;;;;5114060;27;20027;-65
2023/06/11 04:16:34;;;;;;;8.93;4.80;;;;;;;;;;5113070;28;20362;-66
2023/06/11 04:18:59;;;;;;;7.05;5.07;;;;;;;;;;5114758;28;20027;-65
2023/06/11 04:21:25;;;;;;;10.40;4.47;;;;;;;;;;5100636;28;20024;-65
2023/06/11 04:23:51;;;;;;;9.90;4.78;;;;;;;;;;5098727;28;20023;-65
2023/06/11 04:26:19;;;;;;;9.57;4.68;;;;;;;;;;5111573;28;20032;-65
2023/06/11 04:28:44;;;;;;;10.30;5.13;;;;;;;;;;5114229;28;20100;-65
2023/06/11 04:31:11;;;;;;;9.75;4.68;;;;;;;;;;5113520;28;20043;-66
2023/06/11 04:33:36;;;;;;;9.05;4.70;;;;;;;;;;5111215;28;20042;-65
2023/06/11 04:36:05;;;;;;;11.75;4.82;;;;;;;;;;5113630;27;20028;-65
2023/06/11 04:38:34;;;;;;;10.65;5.10;;;;;;;;;;5114436;28;20081;-65
2023/06/11 04:41:00;;;;;;;13.02;4.30;;;;;;;;;;5114393;28;20473;-65
2023/06/11 04:43:25;;;;;;;10.38;4.50;;;;;;;;;;5114299;28;20026;-66
2023/06/11 04:45:55;;;;;;;11.27;4.60;;;;;;;;;;5111093;27;20015;-65
2023/06/11 04:48:21;;;;;;;9.27;4.40;;;;;;;;;;5114279;28;20497;-65
2023/06/11 04:50:51;;;;;;;8.23;3.78;;;;;;;;;;5113695;28;20031;-66
2023/06/11 04:53:21;;;;;;;8.05;3.97;;;;;;;;;;5098430;28;20432;-65
2023/06/11 04:55:49;;;;;;;9.60;4.00;;;;;;;;;;5108331;28;20031;-66
2023/06/11 04:58:14;;;;;;;9.00;4.15;;;;;;;;;;5112555;28;20027;-65
2023/06/11 05:00:40;;;;;;;6.47;3.83;;;;;;;;;;5110883;28;20028;-65
2023/06/11 05:03:06;;;;;;;12.82;4.20;;;;;;;;;;5113595;28;20017;-65
2023/06/11 05:05:32;;;;;;;7.47;3.72;;;;;;;;;;5111977;28;20482;-65
2023/06/11 05:07:57;;;;;;;6.28;3.65;;;;;;;;;;5110593;28;20111;-66
2023/06/11 05:10:22;;;;;;;7.30;3.58;;;;;;;;;;5113991;28;20023;-65
2023/06/11 05:12:48;;;;;;;9.43;4.00;;;;;;;;;;5113964;28;20479;-65
2023/06/11 05:15:13;;;;;;;11.35;3.75;;;;;;;;;;5112484;28;20019;-65
2023/06/11 05:17:39;;;;;;;11.48;4.10;;;;;;;;;;5111366;28;20206;-65
2023/06/11 05:20:05;;;;;;;6.35;3.72;;;;;;;;;;5112048;28;20030;-65
2023/06/11 05:22:30;;;;;;;9.00;4.07;;;;;;;;;;5113491;28;20031;-65
2023/06/11 05:24:55;;;;;;;8.55;3.95;;;;;;;;;;5113504;28;20383;-65
2023/06/11 05:27:22;;;;;;;5.68;3.50;;;;;;;;;;5113754;28;20011;-65
2023/06/11 05:29:47;;;;;;;9.60;3.80;;;;;;;;;;5112245;28;20023;-65
2023/06/11 05:32:14;;;;;;;9.45;4.00;;;;;;;;;;5113518;28;20020;-65
2023/06/11 05:34:40;;;;;;;13.25;4.25;;;;;;;;;;5113831;27;20405;-65
2023/06/11 05:37:06;;;;;;;10.98;4.30;;;;;;;;;;5115945;28;20513;-65
2023/06/11 05:39:31;;;;;;;8.68;4.03;;;;;;;;;;5117660;28;20095;-65
2023/06/11 05:41:56;;;;;;;7.45;3.65;;;;;;;;;;5117034;28;20415;-66
2023/06/11 05:44:22;;;;;;;8.20;3.60;;;;;;;;;;5117089;28;20558;-65
2023/06/11 05:46:47;;;;;;;7.38;3.75;;;;;;;;;;5116777;28;20020;-66
2023/06/11 05:49:13;;;;;;;6.72;3.83;;;;;;;;;;5117647;28;20060;-65
2023/06/11 05:51:38;;;;;;;7.20;4.20;;;;;;;;;;5116115;27;20497;-65
2023/06/11 05:54:04;;;;;;;9.27;4.38;;;;;;;;;;5117399;28;20049;-66
2023/06/11 05:56:30;;;;;;;7.53;4.00;;;;;;;;;;5117313;28;20035;-66
2023/06/11 05:58:55;;;;;;;8.18;4.47;;;;;;;;;;5115503;28;20024;-65
2023/06/11 06:01:21;;;;;;;6.95;4.05;;;;;;;;;;5114719;27;20024;-65
2023/06/11 06:03:47;;;;;;;7.85;3.72;;;;;;;;;;5113529;28;20516;-65
2023/06/11 06:06:12;;;;;;;10.32;4.43;;;;;;;;;;5116478;28;20045;-65
2023/06/11 06:08:37;;;;;;;8.18;3.95;;;;;;;;;;5117001;28;20095;-65
2023/06/11 06:11:03;;;;;;;8.45;4.13;;;;;;;;;;5117050;28;20016;-66
2023/06/11 06:13:28;;;;;;;11.73;4.28;;;;;;;;;;5105756;27;20035;-65
2023/06/11 06:15:54;;;;;;;13.32;4.43;;;;;;;;;;5112450;27;20031;-65
2023/06/11 06:18:19;;;;;;;7.35;4.00;;;;;;;;;;5109179;27;20051;-65
2023/06/11 06:20:44;;;;;;;11.05;4.07;;;;;;;;;;5113588;27;20366;-65
2023/06/11 06:23:10;;;;;;;7.53;4.13;;;;;;;;;;5097050;27;20667;-65
2023/06/11 06:25:38;;;;;;;7.28;3.72;;;;;;;;;;5116693;28;20012;-64
2023/06/11 06:28:04;;;;;;;8.10;4.05;;;;;;;;;;5112887;28;20032;-65
2023/06/11 06:30:30;;;;;;;8.57;4.50;;;;;;;;;;5112681;28;20089;-65
2023/06/11 06:32:56;;;;;;;10.63;4.32;;;;;;;;;;5114827;28;20054;-65
2023/06/11 06:35:21;;;;;;;12.60;4.57;;;;;;;;;;5116532;28;20024;-65
2023/06/11 06:37:46;;;;;;;8.10;4.22;;;;;;;;;;5114343;28;20069;-65
2023/06/11 06:40:12;;;;;;;8.43;4.00;;;;;;;;;;5116722;28;20469;-66
2023/06/11 06:42:38;;;;;;;10.73;4.30;;;;;;;;;;5115854;28;20035;-66
2023/06/11 06:45:03;;;;;;;7.35;3.80;;;;;;;;;;5113713;28;20026;-65
2023/06/11 06:47:28;;;;;;;8.82;4.20;;;;;;;;;;5116284;28;20381;-66
2023/06/11 06:49:53;;;;;;;10.00;4.00;;;;;;;;;;5116555;28;20101;-65
2023/06/11 06:52:19;;;;;;;8.25;4.13;;;;;;;;;;5114938;27;20034;-65
2023/06/11 06:54:44;;;;;;;6.93;4.10;;;;;;;;;;5115623;28;20023;-66
2023/06/11 06:57:10;;;;;;;6.53;3.85;;;;;;;;;;5116439;28;20464;-65
2023/06/11 06:59:35;;;;;;;6.97;4.10;;;;;;;;;;5116071;28;20533;-65
2023/06/11 07:02:01;;;;;;;10.25;4.50;;;;;;;;;;5111769;28;20103;-66
2023/06/11 07:04:26;;;;;;;10.43;3.92;;;;;;;;;;5113156;28;20520;-66
2023/06/11 07:06:51;;;;;;;10.90;5.13;;;;;;;;;;5111359;27;20092;-66
2023/06/11 07:09:17;;;;;;;8.90;4.40;;;;;;;;;;5092964;27;20035;-66
2023/06/11 07:11:42;;;;;;;8.27;4.45;;;;;;;;;;5105603;27;20148;-66
2023/06/11 07:14:08;;;;;;;7.70;4.22;;;;;;;;;;5110128;27;20030;-66
2023/06/11 07:16:33;;;;;;;10.60;5.00;;;;;;;;;;5109797;27;20031;-66
2023/06/11 07:18:58;;;;;;;6.72;3.88;;;;;;;;;;5104203;27;20027;-65
2023/06/11 07:21:24;;;;;;;6.22;4.10;;;;;;;;;;5114641;27;20405;-66
2023/06/11 07:23:49;;;;;;;6.25;3.88;;;;;;;;;;5111861;27;20054;-66
2023/06/11 07:26:15;;;;;;;8.20;4.15;;;;;;;;;;5112862;28;20541;-65
2023/06/11 07:28:41;;;;;;;7.60;4.13;;;;;;;;;;5113081;27;20031;-66
2023/06/11 07:31:06;;;;;;;8.57;4.18;;;;;;;;;;5108091;27;20402;-66
2023/06/11 07:33:31;;;;;;;6.22;3.60;;;;;;;;;;5113428;28;20019;-66
2023/06/11 07:35:57;;;;;;;7.25;4.40;;;;;;;;;;5114163;28;20051;-66
2023/06/11 07:38:22;;;;;;;8.02;4.93;;;;;;;;;;5113524;27;20020;-66
2023/06/11 07:40:47;;;;;;;7.57;4.32;;;;;;;;;;5112949;27;20011;-66
2023/06/11 07:43:13;;;;;;;8.93;4.13;;;;;;;;;;5107897;27;20075;-66
2023/06/11 07:45:38;;;;;;;7.78;4.28;;;;;;;;;;5114263;28;20044;-66
2023/06/11 07:48:03;;;;;;;8.40;4.55;;;;;;;;;;5112596;28;20026;-66
2023/06/11 07:50:29;;;;;;;7.07;4.28;;;;;;;;;;5108719;28;20036;-66
2023/06/11 07:52:54;;;;;;;8.68;4.20;;;;;;;;;;5113193;27;20042;-66
2023/06/11 07:55:19;;;;;;;7.32;4.47;;;;;;;;;;5109524;28;20035;-66
2023/06/11 07:57:46;;;;;;;6.53;4.15;;;;;;;;;;5109433;28;20408;-66
2023/06/11 08:00:12;;;;;;;10.60;4.40;;;;;;;;;;5103924;27;20575;-66
2023/06/11 08:02:41;;;;;;;7.28;4.38;;;;;;;;;;5109411;28;20047;-66
2023/06/11 08:05:07;;;;;;;12.07;4.53;;;;;;;;;;5113093;28;20544;-66
2023/06/11 08:07:32;;;;;;;6.72;3.92;;;;;;;;;;5110812;28;20493;-66
2023/06/11 08:09:57;;;;;;;8.85;4.20;;;;;;;;;;5114252;28;20025;-66
2023/06/11 08:12:23;;;;;;;7.32;4.47;;;;;;;;;;5112752;27;20127;-66
2023/06/11 08:14:48;;;;;;;10.40;4.32;;;;;;;;;;5114597;28;20504;-67
2023/06/11 08:17:13;;;;;;;8.68;4.30;;;;;;;;;;5111368;28;20128;-66
2023/06/11 08:19:39;;;;;;;8.60;4.20;;;;;;;;;;5114505;28;20036;-66
2023/06/11 08:22:04;;;;;;;9.02;4.35;;;;;;;;;;5113307;27;20020;-67
2023/06/11 08:24:30;;;;;;;6.68;4.03;;;;;;;;;;5094427;27;20385;-67
2023/06/11 08:26:56;;;;;;;8.68;4.25;;;;;;;;;;5115892;27;20008;-66
2023/06/11 08:29:21;;;;;;;10.32;4.70;;;;;;;;;;5104791;28;20019;-67
2023/06/11 08:31:46;;;;;;;9.20;4.50;;;;;;;;;;5108311;28;20065;-67
2023/06/11 08:34:12;;;;;;;9.25;4.50;;;;;;;;;;5109091;27;20035;-66
2023/06/11 08:36:38;;;;;;;7.28;4.05;;;;;;;;;;5110201;28;20454;-68
2023/06/11 08:39:03;;;;;;;7.65;4.30;;;;;;;;;;5105281;27;20039;-67
2023/06/11 08:41:29;;;;;;;6.63;4.38;;;;;;;;;;5111292;28;20026;-67
2023/06/11 08:43:57;;;;;;;7.32;4.10;;;;;;;;;;5101426;27;21260;-67
2023/06/11 08:46:26;;;;;;;6.55;4.30;;;;;;;;;;5110058;28;20021;-67
2023/06/11 08:49:00;;;;;;;7.45;4.28;;;;;;;;;;5112158;28;20023;-67
2023/06/11 08:51:31;;;;;;;7.30;4.40;;;;;;;;;;5108360;28;20497;-66
2023/06/11 08:53:57;;;;;;;6.68;3.90;;;;;;;;;;5108311;28;20015;-66
2023/06/11 08:56:23;;;;;;;6.30;3.90;;;;;;;;;;5105347;28;20026;-67
2023/06/11 08:58:49;;;;;;;13.90;4.60;;;;;;;;;;5111589;28;20042;-67
2023/06/11 09:01:15;;;;;;;8.02;4.32;;;;;;;;;;5106240;28;20036;-66
2023/06/11 09:03:40;;;;;;;6.60;4.20;;;;;;;;;;5105045;28;20047;-66
2023/06/11 09:06:06;;;;;;;6.47;4.20;;;;;;;;;;5108851;27;20039;-66
2023/06/11 09:08:31;;;;;;;8.18;4.10;;;;;;;;;;5106618;28;20486;-67
2023/06/11 09:10:57;;;;;;;7.82;4.05;;;;;;;;;;5108205;27;20084;-66
2023/06/11 09:13:26;;;;;;;8.77;4.72;;;;;;;;;;5107994;28;20046;-66
2023/06/11 09:15:58;;;;;;;6.95;4.45;;;;;;;;;;5104697;28;20032;-67
2023/06/11 09:18:27;;;;;;;8.27;4.25;;;;;;;;;;5109732;28;20038;-66
2023/06/11 09:20:54;;;;;;;6.30;4.05;;;;;;;;;;5104445;28;20035;-66
2023/06/11 09:23:23;;;;;;;8.57;4.40;;;;;;;;;;5107430;28;20032;-67
2023/06/11 09:25:48;;;;;;;8.68;4.35;;;;;;;;;;5092822;28;20404;-67
2023/06/11 09:28:14;;;;;;;8.05;4.15;;;;;;;;;;5108311;28;20030;-67
2023/06/11 09:30:39;;;;;;;6.43;4.22;;;;;;;;;;5097658;28;20043;-67
2023/06/11 09:33:05;;;;;;;11.85;4.65;;;;;;;;;;5100317;28;20024;-67
2023/06/11 09:35:30;;;;;;;7.25;4.22;;;;;;;;;;5101378;28;20035;-68
2023/06/11 09:37:56;;;;;;;7.93;4.35;;;;;;;;;;5109274;28;20076;-67
2023/06/11 09:40:23;;;;;;;7.20;4.38;;;;;;;;;;5102433;28;20127;-67
2023/06/11 09:42:48;;;;;;;8.00;4.15;;;;;;;;;;5102602;28;20060;-67
2023/06/11 09:45:16;;;;;;;6.40;4.25;;;;;;;;;;5100432;27;20114;-68
2023/06/11 09:47:41;;;;;;;9.80;4.20;;;;;;;;;;5110247;28;20481;-67
2023/06/11 09:50:07;;;;;;;7.13;4.00;;;;;;;;;;5105710;28;20053;-68
2023/06/11 09:52:34;;;;;;;7.47;4.28;;;;;;;;;;5109759;28;20334;-67
2023/06/11 09:55:00;;;;;;;6.53;4.32;;;;;;;;;;5111954;28;20022;-67
2023/06/11 09:57:27;;;;;;;6.88;4.30;;;;;;;;;;5111078;28;20023;-68
2023/06/11 09:59:52;;;;;;;9.85;4.07;;;;;;;;;;5112007;28;20016;-67
2023/06/11 10:02:18;;;;;;;7.28;4.47;;;;;;;;;;5090355;27;20546;-66
2023/06/11 10:04:43;;;;;;;8.77;4.70;;;;;;;;;;5106600;28;20524;-66
2023/06/11 10:07:10;;;;;;;8.57;4.45;;;;;;;;;;5112887;28;20015;-67
2023/06/11 10:09:38;;;;;;;6.97;4.10;;;;;;;;;;5110539;28;20545;-67
2023/06/11 10:12:03;;;;;;;8.55;4.63;;;;;;;;;;5106284;28;20016;-67
2023/06/11 10:14:29;;;;;;;8.75;4.30;;;;;;;;;;5103336;28;20039;-67
2023/06/11 10:16:56;;;;;;;7.10;4.18;;;;;;;;;;5111229;28;20047;-67
2023/06/11 10:19:21;;;;;;;7.03;4.45;;;;;;;;;;5112336;28;20550;-67
2023/06/11 10:21:51;;;;;;;8.38;4.43;;;;;;;;;;5113211;27;20020;-66
2023/06/11 10:24:23;;;;;;;8.55;4.30;;;;;;;;;;5105754;27;20024;-67
2023/06/11 10:27:07;;;;;;;9.80;4.38;;;;;;;;;;5109308;27;20041;-67
2023/06/11 10:29:50;;;;;;;8.85;4.60;;;;;;;;;;5115350;28;20501;-66
2023/06/11 10:32:24;;;;;;;8.57;4.50;;;;;;;;;;5111556;28;20028;-66
2023/06/11 10:34:54;;;;;;;7.57;4.35;;;;;;;;;;5114917;27;20019;-66
2023/06/11 10:37:25;;;;;;;11.18;4.88;;;;;;;;;;5113004;28;20524;-67
2023/06/11 10:39:51;;;;;;;7.32;4.55;;;;;;;;;;5113444;28;20064;-66
2023/06/11 10:42:23;;;;;;;10.45;4.20;;;;;;;;;;5116734;27;20035;-68
2023/06/11 10:44:48;;;;;;;7.35;4.53;;;;;;;;;;5114648;28;20099;-67
2023/06/11 10:47:14;;;;;;;8.70;4.43;;;;;;;;;;5112328;27;20106;-66
2023/06/11 10:49:39;;;;;;;7.20;4.40;;;;;;;;;;5115501;28;20019;-67
2023/06/11 10:52:05;;;;;;;12.85;4.32;;;;;;;;;;5110381;27;20031;-69
2023/06/11 10:54:34;;;;;;;6.32;3.95;;;;;;;;;;5112040;27;20455;-67
2023/06/11 10:57:02;;;;;;;5.80;3.70;;;;;;;;;;5114720;27;20397;-67
2023/06/11 10:59:28;;;;;;;6.57;4.32;;;;;;;;;;5113250;27;20030;-67
2023/06/11 11:01:54;;;;;;;8.75;4.30;;;;;;;;;;5113579;27;20016;-66
2023/06/11 11:04:21;;;;;;;6.05;3.90;;;;;;;;;;5103297;27;20497;-67
2023/06/11 11:06:46;;;;;;;8.13;4.53;;;;;;;;;;5115097;28;20031;-67
2023/06/11 11:09:12;;;;;;;5.90;4.18;;;;;;;;;;5111975;27;20045;-67
2023/06/11 11:11:38;;;;;;;8.02;4.47;;;;;;;;;;5109912;28;20072;-67
2023/06/11 11:14:03;;;;;;;7.82;4.15;;;;;;;;;;5114529;27;20500;-68
2023/06/11 11:16:29;;;;;;;7.68;4.60;;;;;;;;;;5114226;28;20012;-68
2023/06/11 11:18:54;;;;;;;6.63;4.00;;;;;;;;;;5114716;28;20020;-70
2023/06/11 11:21:26;;;;;;;8.23;3.97;;;;;;;;;;5113860;27;20027;-69
2023/06/11 11:23:52;;;;;;;6.78;4.00;;;;;;;;;;5111837;27;20047;-68
2023/06/11 11:26:18;;;;;;;7.80;4.47;;;;;;;;;;5106812;27;20044;-70
2023/06/11 11:28:44;;;;;;;10.05;4.40;;;;;;;;;;5113729;28;20069;-69
2023/06/11 11:31:12;;;;;;;6.53;4.18;;;;;;;;;;5108505;27;20520;-68
2023/06/11 11:33:38;;;;;;;6.82;3.92;;;;;;;;;;5108721;27;20126;-69
2023/06/11 11:36:04;;;;;;;8.15;4.00;;;;;;;;;;5114321;27;20077;-68
2023/06/11 11:38:36;;;;;;;6.82;3.95;;;;;;;;;;5111206;28;20423;-68
2023/06/11 11:41:02;;;;;;;6.65;3.90;;;;;;;;;;5109541;27;20039;-69
2023/06/11 11:43:40;;;;;;;7.97;3.72;;;;;;;;;;5112129;28;20043;-68
2023/06/11 11:46:18;;;;;;;12.35;4.60;;;;;;;;;;5106368;28;20104;-68
2023/06/11 11:48:44;;;;;;;6.47;3.88;;;;;;;;;;5107568;27;20019;-69
2023/06/11 11:51:11;;;;;;;9.57;3.80;;;;;;;;;;5112697;28;20027;-69
2023/06/11 11:53:37;;;;;;;6.78;3.90;;;;;;;;;;5102051;28;20035;-69
2023/06/11 11:56:02;;;;;;;6.72;3.78;;;;;;;;;;5110737;28;20020;-68
2023/06/11 11:58:28;;;;;;;6.32;3.97;;;;;;;;;;5102115;27;20024;-68
2023/06/11 12:00:56;;;;;;;6.05;3.60;;;;;;;;;;5102304;28;20433;-68
2023/06/11 12:03:22;;;;;;;7.32;3.60;;;;;;;;;;5114435;28;20027;-68
2023/06/11 12:05:56;;;;;;;10.65;3.80;;;;;;;;;;5113661;28;20048;-68
2023/06/11 12:08:21;;;;;;;8.55;4.00;;;;;;;;;;5113397;27;20031;-68
2023/06/11 12:10:47;;;;;;;6.90;3.53;;;;;;;;;;5110160;28;20063;-69
2023/06/11 12:13:12;;;;;;;7.10;3.80;;;;;;;;;;5111751;27;20026;-69
2023/06/11 12:15:37;;;;;;;6.45;3.53;;;;;;;;;;5113217;27;20077;-68
2023/06/11 12:18:02;;;;;;;9.10;4.00;;;;;;;;;;5111179;27;20469;-69
2023/06/11 12:20:28;;;;;;;16.10;4.35;;;;;;;;;;5111257;28;20031;-69
2023/06/11 12:22:53;;;;;;;5.05;3.35;;;;;;;;;;5110499;27;20042;-70
2023/06/11 12:25:19;;;;;;;6.35;3.42;;;;;;;;;;5113743;28;20019;-68
2023/06/11 12:27:44;;;;;;;9.15;3.45;;;;;;;;;;5112874;27;20345;-69
2023/06/11 12:30:10;;;;;;;5.03;3.05;;;;;;;;;;5111468;27;20024;-69
2023/06/11 12:32:35;;;;;;;5.10;3.25;;;;;;;;;;5107768;27;20076;-69
2023/06/11 12:35:00;;;;;;;5.07;3.20;;;;;;;;;;5100823;27;20024;-68
2023/06/11 12:37:26;;;;;;;6.25;3.50;;;;;;;;;;5108965;27;20503;-69
2023/06/11 12:39:51;;;;;;;5.88;3.58;;;;;;;;;;5111166;28;20096;-68
2023/06/11 12:42:20;;;;;;;5.90;3.55;;;;;;;;;;5112442;27;20031;-67
2023/06/11 12:44:46;;;;;;;6.93;3.90;;;;;;;;;;5109204;28;20022;-68
2023/06/11 12:47:12;;;;;;;10.00;3.67;;;;;;;;;;5109243;28;20050;-68
2023/06/11 12:49:37;;;;;;;6.32;3.60;;;;;;;;;;5111352;27;20024;-71
2023/06/11 12:52:03;;;;;;;8.10;3.95;;;;;;;;;;5110277;28;20032;-72
2023/06/11 12:54:28;;;;;;;6.60;3.70;;;;;;;;;;5105178;27;20411;-72
2023/06/11 12:56:54;;;;;;;6.88;3.28;;;;;;;;;;5108725;28;20023;-72
2023/06/11 12:59:26;;;;;;;7.30;3.60;;;;;;;;;;5111045;28;20034;-72
2023/06/11 13:01:51;;;;;;;6.22;3.38;;;;;;;;;;5111666;28;20047;-72
2023/06/11 13:04:16;;;;;;;7.13;3.58;;;;;;;;;;5111500;28;20125;-72
2023/06/11 13:06:43;;;;;;;5.82;3.55;;;;;;;;;;5112309;28;20027;-72
2023/06/11 13:09:08;;;;;;;5.70;3.60;;;;;;;;;;5110326;27;20019;-72
2023/06/11 13:11:33;;;;;;;5.05;3.20;;;;;;;;;;5112796;28;20019;-72
2023/06/11 13:13:59;;;;;;;7.10;3.28;;;;;;;;;;5113007;28;20042;-71
2023/06/11 13:16:24;;;;;;;5.72;3.25;;;;;;;;;;5113846;28;20024;-72
2023/06/11 13:18:49;;;;;;;6.70;3.30;;;;;;;;;;5112366;28;20028;-72
2023/06/11 13:21:15;;;;;;;7.07;3.45;;;;;;;;;;5112317;28;20061;-72
2023/06/11 13:23:42;;;;;;;7.80;3.38;;;;;;;;;;5111201;28;20492;-72
2023/06/11 13:26:08;;;;;;;7.22;3.60;;;;;;;;;;5113743;28;20019;-72
2023/06/11 13:28:33;;;;;;;5.40;3.05;;;;;;;;;;5113848;28;20042;-72
2023/06/11 13:30:59;;;;;;;6.68;3.70;;;;;;;;;;5113253;28;20018;-71
2023/06/11 13:33:24;;;;;;;7.25;3.90;;;;;;;;;;5110922;28;20026;-72
2023/06/11 13:35:49;;;;;;;5.28;3.55;;;;;;;;;;5113459;28;20028;-72
2023/06/11 13:38:15;;;;;;;7.00;3.60;;;;;;;;;;5113349;28;20367;-72
2023/06/11 13:40:40;;;;;;;6.75;3.80;;;;;;;;;;5112769;28;20019;-72
2023/06/11 13:43:05;;;;;;;7.97;3.88;;;;;;;;;;5111449;28;20437;-72
2023/06/11 13:45:31;;;;;;;6.65;3.50;;;;;;;;;;5113361;28;20023;-72
2023/06/11 13:48:01;;;;;;;5.55;3.50;;;;;;;;;;5112705;28;20019;-72
2023/06/11 13:50:27;;;;;;;7.10;3.33;;;;;;;;;;5109312;28;20516;-72
2023/06/11 13:52:52;;;;;;;5.80;3.28;;;;;;;;;;5107379;28;20157;-72
2023/06/11 13:55:17;;;;;;;6.80;3.47;;;;;;;;;;5114312;27;20042;-72
2023/06/11 13:57:42;;;;;;;6.68;3.30;;;;;;;;;;5113600;27;20492;-72
2023/06/11 14:00:08;;;;;;;8.18;3.20;;;;;;;;;;5117058;28;20019;-72
2023/06/11 14:02:33;;;;;;;5.13;3.03;;;;;;;;;;5115955;28;20098;-72
2023/06/11 14:04:59;;;;;;;5.57;3.33;;;;;;;;;;5116504;28;20051;-72
2023/06/11 14:07:24;;;;;;;5.50;3.47;;;;;;;;;;5115930;28;20500;-72
2023/06/11 14:09:50;;;;;;;6.63;3.90;;;;;;;;;;5114329;28;20059;-72
2023/06/11 14:12:15;;;;;;;6.60;3.50;;;;;;;;;;5116938;28;20050;-72
2023/06/11 14:14:40;;;;;;;9.43;3.65;;;;;;;;;;5113849;28;20015;-72
2023/06/11 14:17:06;;;;;;;7.88;3.83;;;;;;;;;;5115343;28;20039;-72
2023/06/11 14:19:31;;;;;;;7.32;3.67;;;;;;;;;;5112324;27;20213;-72
2023/06/11 14:21:57;;;;;;;5.50;3.17;;;;;;;;;;5114786;27;20023;-72
2023/06/11 14:24:23;;;;;;;6.70;3.30;;;;;;;;;;5114082;28;20015;-72
2023/06/11 14:26:48;;;;;;;6.30;3.30;;;;;;;;;;5110539;27;20032;-72
2023/06/11 14:29:14;;;;;;;8.88;3.28;;;;;;;;;;5113404;27;20042;-72
2023/06/11 14:31:39;;;;;;;8.68;3.33;;;;;;;;;;5116766;28;20010;-72
2023/06/11 14:34:04;;;;;;;10.73;3.40;;;;;;;;;;5115762;28;20460;-72
2023/06/11 14:36:29;;;;;;;5.72;2.97;;;;;;;;;;5116299;28;20027;-72